createdAt,value
2017-10-12T00:01:25.646Z,15.00
2017-10-12T00:03:54.218Z,15.00
2017-10-12T00:06:24.055Z,15.00
2017-10-12T00:08:52.962Z,15.00
2017-10-12T00:11:21.610Z,15.00
2017-10-12T00:13:50.211Z,15.00
2017-10-12T00:16:18.870Z,15.00
2017-10-12T00:18:47.184Z,15.00
2017-10-12T00:21:16.035Z,15.00
2017-10-12T00:23:44.834Z,15.00
2017-10-12T00:26:14.071Z,15.00
2017-10-12T00:28:42.846Z,15.10
2017-10-12T00:31:11.366Z,15.00
2017-10-12T00:33:40.407Z,15.10
2017-10-12T00:36:08.990Z,15.10
2017-10-12T00:38:37.999Z,15.10
2017-10-12T00:41:07.239Z,15.00
2017-10-12T00:43:37.111Z,15.00
2017-10-12T00:46:06.095Z,15.10
2017-10-12T00:48:34.458Z,15.00
2017-10-12T00:51:03.377Z,15.00
2017-10-12T00:53:32.147Z,15.00
2017-10-12T00:56:01.037Z,15.00
2017-10-12T00:58:29.671Z,15.00
2017-10-12T01:00:58.626Z,15.10
2017-10-12T01:03:28.307Z,15.10
2017-10-12T01:05:56.871Z,15.10
2017-10-12T01:08:27.128Z,15.20
2017-10-12T01:10:55.935Z,15.10
2017-10-12T01:13:24.984Z,15.20
2017-10-12T01:15:54.532Z,15.20
2017-10-12T01:18:22.851Z,15.20
2017-10-12T01:20:51.678Z,15.00
2017-10-12T01:23:20.493Z,15.00
2017-10-12T01:25:49.139Z,14.90
2017-10-12T01:28:18.547Z,14.90
2017-10-12T01:30:48.135Z,14.80
2017-10-12T01:33:17.169Z,14.80
2017-10-12T01:35:45.579Z,14.80
2017-10-12T01:38:15.111Z,14.80
2017-10-12T01:40:44.590Z,14.70
2017-10-12T01:43:13.323Z,14.60
2017-10-12T01:45:43.007Z,14.60
2017-10-12T01:48:12.302Z,14.50
2017-10-12T01:50:40.717Z,14.50
2017-10-12T01:53:09.351Z,14.50
2017-10-12T01:55:38.546Z,14.50
2017-10-12T01:58:07.233Z,14.50
2017-10-12T02:00:35.759Z,14.50
2017-10-12T02:03:05.192Z,14.50
2017-10-12T02:05:34.458Z,14.50
2017-10-12T02:08:03.420Z,14.60
2017-10-12T02:10:32.299Z,14.60
2017-10-12T02:13:00.992Z,14.50
2017-10-12T02:15:29.956Z,14.60
2017-10-12T02:17:59.106Z,14.50
2017-10-12T02:20:28.029Z,14.60
2017-10-12T02:22:57.055Z,14.60
2017-10-12T02:25:26.177Z,14.50
2017-10-12T02:27:55.095Z,14.60
2017-10-12T02:30:23.934Z,14.60
2017-10-12T02:32:52.533Z,14.60
2017-10-12T02:35:21.169Z,14.60
2017-10-12T02:37:50.003Z,14.50
2017-10-12T02:40:19.135Z,14.60
2017-10-12T02:42:47.922Z,14.60
2017-10-12T02:45:17.152Z,14.60
2017-10-12T02:47:45.503Z,14.60
2017-10-12T02:50:14.863Z,14.70
2017-10-12T02:52:44.374Z,14.70
2017-10-12T02:55:13.419Z,14.70
2017-10-12T02:57:41.775Z,14.70
2017-10-12T03:00:10.615Z,14.70
2017-10-12T03:02:39.393Z,14.70
2017-10-12T03:05:08.699Z,14.70
2017-10-12T03:07:37.623Z,14.70
2017-10-12T03:10:06.174Z,14.80
2017-10-12T03:12:35.164Z,14.70
2017-10-12T03:15:04.466Z,14.70
2017-10-12T03:17:32.967Z,14.70
2017-10-12T03:20:01.763Z,14.70
2017-10-12T03:22:30.401Z,14.70
2017-10-12T03:24:58.955Z,14.70
2017-10-12T03:27:27.899Z,14.70
2017-10-12T03:29:57.526Z,14.70
2017-10-12T03:32:26.391Z,14.70
2017-10-12T03:34:54.706Z,14.70
2017-10-12T03:37:23.267Z,14.70
2017-10-12T03:39:52.186Z,14.60
2017-10-12T03:42:20.497Z,14.70
2017-10-12T03:44:50.366Z,14.70
2017-10-12T03:47:18.734Z,14.70
2017-10-12T03:49:47.706Z,14.70
2017-10-12T03:52:17.038Z,14.60
2017-10-12T03:54:45.551Z,14.60
2017-10-12T03:57:14.362Z,14.60
2017-10-12T03:59:43.164Z,14.50
2017-10-12T04:02:11.528Z,14.40
2017-10-12T04:04:40.023Z,14.40
2017-10-12T04:07:08.794Z,14.40
2017-10-12T04:09:38.135Z,14.30
2017-10-12T04:12:06.457Z,14.30
2017-10-12T04:14:35.427Z,14.30
2017-10-12T04:17:03.883Z,14.30
2017-10-12T04:19:32.648Z,14.30
2017-10-12T04:22:01.651Z,14.30
2017-10-12T04:24:30.369Z,14.30
2017-10-12T04:26:58.719Z,14.30
2017-10-12T04:29:27.683Z,14.30
2017-10-12T04:31:56.656Z,14.20
2017-10-12T04:34:25.259Z,14.30
2017-10-12T04:36:55.446Z,14.30
2017-10-12T04:39:24.619Z,14.30
2017-10-12T04:41:53.431Z,14.20
2017-10-12T04:44:22.155Z,14.20
2017-10-12T04:46:51.878Z,14.20
2017-10-12T04:49:20.875Z,14.30
2017-10-12T04:51:49.555Z,14.20
2017-10-12T04:54:18.367Z,14.20
2017-10-12T04:56:47.035Z,13.40
2017-10-12T04:59:15.882Z,14.30
2017-10-12T05:01:45.043Z,14.30
2017-10-12T05:04:14.277Z,14.40
2017-10-12T05:06:43.165Z,14.30
2017-10-12T05:09:11.808Z,14.40
2017-10-12T05:11:40.999Z,14.40
2017-10-12T05:14:09.471Z,14.30
2017-10-12T05:16:38.087Z,14.30
2017-10-12T05:19:06.904Z,14.20
2017-10-12T05:21:35.691Z,14.20
2017-10-12T05:24:04.291Z,14.10
2017-10-12T05:26:33.076Z,14.20
2017-10-12T05:29:01.502Z,14.30
2017-10-12T05:31:29.861Z,14.30
2017-10-12T05:33:59.273Z,14.30
2017-10-12T05:36:28.378Z,14.20
2017-10-12T05:38:57.130Z,14.20
2017-10-12T05:41:25.918Z,14.20
2017-10-12T05:43:55.098Z,14.00
2017-10-12T05:46:23.564Z,14.10
2017-10-12T05:48:53.039Z,14.10
2017-10-12T05:51:21.899Z,14.10
2017-10-12T05:53:50.541Z,14.10
2017-10-12T05:56:19.075Z,14.10
2017-10-12T05:58:47.590Z,14.10
2017-10-12T06:01:17.086Z,14.00
2017-10-12T06:03:45.400Z,14.00
2017-10-12T06:06:13.958Z,14.10
2017-10-12T06:08:43.549Z,14.10
2017-10-12T06:11:13.013Z,14.10
2017-10-12T06:13:42.127Z,14.00
2017-10-12T06:16:10.806Z,14.00
2017-10-12T06:18:39.498Z,14.00
2017-10-12T06:21:09.070Z,14.10
2017-10-12T06:23:37.514Z,14.10
2017-10-12T06:26:05.887Z,14.10
2017-10-12T06:28:34.927Z,14.10
2017-10-12T06:31:04.071Z,14.20
2017-10-12T06:33:32.666Z,14.20
2017-10-12T06:36:01.950Z,14.30
2017-10-12T06:38:31.118Z,14.30
2017-10-12T06:41:00.243Z,14.30
2017-10-12T06:43:29.700Z,14.20
2017-10-12T06:45:58.826Z,14.30
2017-10-12T06:48:27.692Z,14.20
2017-10-12T06:50:56.553Z,14.20
2017-10-12T06:53:25.364Z,14.30
2017-10-12T06:55:54.128Z,14.30
2017-10-12T06:58:22.936Z,14.30
2017-10-12T07:00:51.528Z,14.30
2017-10-12T07:03:20.151Z,14.20
2017-10-12T07:05:49.106Z,14.20
2017-10-12T07:08:17.588Z,14.30
2017-10-12T07:10:46.796Z,14.40
2017-10-12T07:13:15.386Z,14.50
2017-10-12T07:15:44.927Z,14.70
2017-10-12T07:18:14.172Z,14.80
2017-10-12T07:20:42.621Z,14.80
2017-10-12T07:23:11.698Z,14.90
2017-10-12T07:25:41.166Z,14.90
2017-10-12T07:28:09.930Z,14.90
2017-10-12T07:30:38.787Z,14.80
2017-10-12T07:33:07.381Z,15.00
2017-10-12T07:35:36.151Z,15.00
2017-10-12T07:38:04.974Z,15.10
2017-10-12T07:40:33.927Z,15.10
2017-10-12T07:43:02.280Z,15.10
2017-10-12T07:45:30.807Z,15.20
2017-10-12T07:47:59.585Z,15.10
2017-10-12T07:50:28.384Z,15.20
2017-10-12T07:52:56.809Z,15.30
2017-10-12T07:55:25.382Z,15.40
2017-10-12T07:57:54.858Z,15.40
2017-10-12T08:00:24.285Z,15.40
2017-10-12T08:02:53.188Z,15.40
2017-10-12T08:05:22.489Z,15.50
2017-10-12T08:07:51.995Z,15.40
2017-10-12T08:10:21.371Z,15.30
2017-10-12T08:12:50.572Z,15.40
2017-10-12T08:15:19.128Z,15.50
2017-10-12T08:17:48.362Z,15.40
2017-10-12T08:20:17.255Z,15.50
2017-10-12T08:22:45.644Z,15.40
2017-10-12T08:25:15.002Z,15.30
2017-10-12T08:27:44.911Z,15.30
2017-10-12T08:30:14.575Z,15.20
2017-10-12T08:32:43.124Z,15.20
2017-10-12T08:35:11.540Z,15.40
2017-10-12T08:37:39.895Z,15.30
2017-10-12T08:40:08.728Z,15.30
2017-10-12T08:42:38.005Z,15.50
2017-10-12T08:45:06.359Z,15.60
2017-10-12T08:47:35.071Z,15.80
2017-10-12T08:50:03.736Z,16.10
2017-10-12T08:52:32.769Z,16.20
2017-10-12T08:55:01.128Z,16.20
2017-10-12T08:57:30.151Z,16.00
2017-10-12T08:59:59.613Z,16.00
2017-10-12T09:02:28.864Z,16.00
2017-10-12T09:04:58.251Z,16.10
2017-10-12T09:07:26.853Z,16.10
2017-10-12T09:09:56.271Z,16.00
2017-10-12T09:12:24.717Z,16.00
2017-10-12T09:14:54.699Z,16.00
2017-10-12T09:17:23.334Z,16.10
2017-10-12T09:19:52.052Z,16.00
2017-10-12T09:22:20.340Z,16.00
2017-10-12T09:24:48.742Z,16.10
2017-10-12T09:27:17.582Z,16.10
2017-10-12T09:29:45.989Z,16.20
2017-10-12T09:32:15.279Z,16.30
2017-10-12T09:34:44.151Z,16.50
2017-10-12T09:37:12.732Z,16.50
2017-10-12T09:39:42.068Z,16.30
2017-10-12T09:42:10.682Z,16.20
2017-10-12T09:44:39.271Z,16.10
2017-10-12T09:47:09.453Z,16.20
2017-10-12T09:49:38.987Z,16.50
2017-10-12T09:52:08.081Z,16.60
2017-10-12T09:54:37.080Z,16.50
2017-10-12T09:57:06.482Z,16.50
2017-10-12T09:59:34.859Z,16.50
2017-10-12T10:02:03.820Z,16.60
2017-10-12T10:04:32.961Z,16.50
2017-10-12T10:07:02.005Z,16.60
2017-10-12T10:09:30.346Z,16.60
2017-10-12T10:11:58.699Z,16.70
2017-10-12T10:14:28.121Z,16.80
2017-10-12T10:16:57.400Z,16.90
2017-10-12T10:19:26.031Z,17.00
2017-10-12T10:21:54.670Z,17.10
2017-10-12T10:24:23.426Z,17.10
2017-10-12T10:26:51.908Z,17.10
2017-10-12T10:29:25.507Z,16.90
2017-10-12T10:31:54.775Z,16.90
2017-10-12T10:34:23.155Z,17.00
2017-10-12T10:36:52.635Z,16.80
2017-10-12T10:39:21.296Z,16.70
2017-10-12T10:41:50.383Z,16.80
2017-10-12T10:44:18.919Z,16.90
2017-10-12T10:46:47.359Z,16.80
2017-10-12T10:49:15.879Z,16.80
2017-10-12T10:51:44.627Z,17.00
2017-10-12T10:54:12.927Z,17.10
2017-10-12T10:56:41.920Z,17.10
2017-10-12T10:59:10.781Z,17.10
2017-10-12T11:01:39.492Z,17.00
2017-10-12T11:04:08.386Z,16.90
2017-10-12T11:06:36.659Z,16.80
2017-10-12T11:09:05.443Z,16.90
2017-10-12T11:11:34.103Z,17.00
2017-10-12T11:14:02.771Z,17.20
2017-10-12T11:16:31.194Z,17.20
2017-10-12T11:18:59.851Z,17.30
2017-10-12T11:21:28.463Z,17.20
2017-10-12T11:23:57.019Z,17.30
2017-10-12T11:26:25.321Z,17.50
2017-10-12T11:28:54.232Z,17.60
2017-10-12T11:31:22.772Z,17.50
2017-10-12T11:33:51.399Z,17.50
2017-10-12T11:36:20.407Z,17.40
2017-10-12T11:38:49.426Z,17.40
2017-10-12T11:41:18.101Z,17.30
2017-10-12T11:43:47.546Z,17.10
2017-10-12T11:46:16.248Z,16.90
2017-10-12T11:48:44.730Z,16.90
2017-10-12T11:51:13.469Z,16.70
2017-10-12T11:53:42.170Z,16.60
2017-10-12T11:56:11.223Z,16.40
2017-10-12T11:58:40.827Z,16.50
2017-10-12T12:01:09.676Z,16.60
2017-10-12T12:03:38.156Z,16.90
2017-10-12T12:06:07.379Z,16.90
2017-10-12T12:08:35.768Z,16.60
2017-10-12T12:11:04.268Z,16.50
2017-10-12T12:13:32.646Z,16.60
2017-10-12T12:16:01.671Z,16.90
2017-10-12T12:18:30.125Z,17.20
2017-10-12T12:20:59.450Z,17.30
2017-10-12T12:23:28.143Z,17.50
2017-10-12T12:25:56.514Z,17.50
2017-10-12T12:28:25.122Z,17.50
2017-10-12T12:30:53.767Z,17.50
2017-10-12T12:33:22.253Z,17.50
2017-10-12T12:35:51.546Z,17.70
2017-10-12T12:38:20.118Z,17.70
2017-10-12T12:40:49.351Z,17.60
2017-10-12T12:43:17.878Z,17.40
2017-10-12T12:45:46.644Z,17.30
2017-10-12T12:48:15.683Z,17.20
2017-10-12T12:50:44.618Z,17.20
2017-10-12T12:53:13.391Z,17.20
2017-10-12T12:55:42.224Z,17.30
2017-10-12T12:58:11.390Z,17.30
2017-10-12T13:00:39.929Z,17.60
2017-10-12T13:03:08.515Z,17.70
2017-10-12T13:05:37.140Z,17.80
2017-10-12T13:08:05.978Z,17.90
2017-10-12T13:10:34.416Z,18.00
2017-10-12T13:13:03.159Z,17.80
2017-10-12T13:15:32.638Z,17.70
2017-10-12T13:18:01.016Z,17.60
2017-10-12T13:20:29.911Z,17.50
2017-10-12T13:22:58.754Z,17.30
2017-10-12T13:25:27.019Z,17.30
2017-10-12T13:27:55.658Z,17.30
2017-10-12T13:30:24.123Z,17.40
2017-10-12T13:32:53.122Z,17.50
2017-10-12T13:35:21.451Z,17.60
2017-10-12T13:37:49.954Z,17.50
2017-10-12T13:40:18.570Z,17.50
2017-10-12T13:42:47.130Z,17.60
2017-10-12T13:45:15.590Z,17.70
2017-10-12T13:47:44.536Z,17.70
2017-10-12T13:50:13.151Z,17.70
2017-10-12T13:52:42.728Z,17.70
2017-10-12T13:55:11.294Z,17.60
2017-10-12T13:57:40.464Z,17.40
2017-10-12T14:00:09.145Z,17.30
2017-10-12T14:02:37.979Z,17.10
2017-10-12T14:05:07.523Z,17.00
2017-10-12T14:07:36.055Z,16.70
2017-10-12T14:10:04.580Z,16.50
2017-10-12T14:12:33.518Z,16.50
2017-10-12T14:15:02.453Z,16.50
2017-10-12T14:17:31.008Z,16.50
2017-10-12T14:19:59.999Z,16.50
2017-10-12T14:22:29.126Z,16.40
2017-10-12T14:24:57.629Z,16.30
2017-10-12T14:27:26.655Z,16.30
2017-10-12T14:29:55.035Z,16.30
2017-10-12T14:32:23.799Z,16.10
2017-10-12T14:34:53.316Z,16.10
2017-10-12T14:37:21.955Z,16.20
2017-10-12T14:39:51.311Z,16.40
2017-10-12T14:42:19.910Z,16.50
2017-10-12T14:44:48.627Z,16.50
2017-10-12T14:47:17.255Z,16.50
2017-10-12T14:49:45.846Z,16.50
2017-10-12T14:52:14.454Z,16.40
2017-10-12T14:54:43.942Z,16.30
2017-10-12T14:57:12.665Z,16.30
2017-10-12T14:59:41.392Z,16.10
2017-10-12T15:02:11.361Z,16.10
2017-10-12T15:04:41.004Z,16.00
2017-10-12T15:07:09.841Z,16.00
2017-10-12T15:09:38.602Z,16.10
2017-10-12T15:12:08.060Z,15.90
2017-10-12T15:14:36.711Z,15.90
2017-10-12T15:17:05.842Z,15.80
2017-10-12T15:19:35.694Z,15.80
2017-10-12T15:22:04.751Z,15.70
2017-10-12T15:24:33.563Z,15.70
2017-10-12T15:27:02.397Z,15.60
2017-10-12T15:29:31.467Z,15.70
2017-10-12T15:31:59.821Z,15.60
2017-10-12T15:34:28.147Z,15.50
2017-10-12T15:36:56.799Z,15.40
2017-10-12T15:39:26.373Z,15.30
2017-10-12T15:41:55.332Z,15.40
2017-10-12T15:44:24.275Z,15.30
2017-10-12T15:46:53.418Z,15.30
2017-10-12T15:49:22.084Z,15.30
2017-10-12T15:51:52.015Z,15.20
2017-10-12T15:54:20.362Z,15.20
2017-10-12T15:56:48.969Z,15.20
2017-10-12T15:59:17.863Z,15.10
2017-10-12T16:01:46.285Z,15.00
2017-10-12T16:04:15.275Z,15.00
2017-10-12T16:06:44.264Z,14.90
2017-10-12T16:09:12.611Z,14.80
2017-10-12T16:11:41.328Z,14.70
2017-10-12T16:14:09.998Z,14.70
2017-10-12T16:16:38.863Z,14.70
2017-10-12T16:19:07.891Z,14.50
2017-10-12T16:24:38.623Z,14.40
2017-10-12T16:27:07.255Z,14.30
2017-10-12T16:29:36.048Z,14.30
2017-10-12T16:32:04.366Z,14.20
2017-10-12T16:34:33.106Z,14.20
2017-10-12T16:37:02.376Z,14.10
2017-10-12T16:39:31.256Z,14.10
2017-10-12T16:41:59.936Z,14.10
2017-10-12T16:44:28.606Z,14.00
2017-10-12T16:46:57.721Z,13.90
2017-10-12T16:49:26.500Z,13.80
2017-10-12T16:51:55.973Z,13.90
2017-10-12T16:54:24.826Z,13.90
2017-10-12T16:56:53.143Z,13.80
2017-10-12T16:59:21.561Z,13.80
2017-10-12T17:01:49.931Z,13.80
2017-10-12T17:04:18.267Z,13.80
2017-10-12T17:06:46.948Z,13.80
2017-10-12T17:09:16.193Z,13.70
2017-10-12T17:11:45.484Z,13.60
2017-10-12T17:14:13.864Z,13.60
2017-10-12T17:16:43.315Z,13.60
2017-10-12T17:19:12.314Z,13.50
2017-10-12T17:21:41.199Z,13.50
2017-10-12T17:24:09.708Z,13.40
2017-10-12T17:26:38.169Z,13.40
2017-10-12T17:29:06.488Z,13.30
2017-10-12T17:31:35.218Z,13.30
2017-10-12T17:34:04.303Z,13.30
2017-10-12T17:36:33.139Z,13.30
2017-10-12T17:39:01.962Z,13.30
2017-10-12T17:41:31.427Z,13.30
2017-10-12T17:43:59.729Z,13.20
2017-10-12T17:46:29.001Z,13.20
2017-10-12T17:51:25.867Z,13.10
2017-10-12T17:53:55.247Z,13.10
2017-10-12T17:56:24.361Z,13.00
2017-10-12T17:58:52.947Z,13.00
2017-10-12T18:01:21.528Z,13.00
2017-10-12T18:03:50.018Z,13.00
2017-10-12T18:06:18.571Z,12.90
2017-10-12T18:08:46.871Z,13.00
2017-10-12T18:11:15.475Z,13.00
2017-10-12T18:13:44.107Z,12.90
2017-10-12T18:16:12.982Z,12.90
2017-10-12T18:18:41.299Z,12.90
2017-10-12T18:21:10.468Z,12.90
2017-10-12T18:23:39.024Z,12.90
2017-10-12T18:26:07.575Z,12.90
2017-10-12T18:28:36.255Z,12.80
2017-10-12T18:31:04.936Z,12.80
2017-10-12T18:33:33.634Z,12.80
2017-10-12T18:36:02.206Z,12.80
2017-10-12T18:38:30.807Z,12.80
2017-10-12T18:40:59.526Z,12.80
2017-10-12T18:43:28.616Z,12.80
2017-10-12T18:45:58.095Z,12.80
2017-10-12T18:48:27.134Z,12.80
2017-10-12T18:50:55.550Z,12.70
2017-10-12T18:53:24.342Z,12.80
2017-10-12T18:55:52.969Z,12.70
2017-10-12T18:58:22.203Z,12.70
2017-10-12T19:00:51.481Z,12.70
2017-10-12T19:03:20.117Z,12.70
2017-10-12T19:05:49.211Z,12.70
2017-10-12T19:08:18.071Z,12.70
2017-10-12T19:10:46.557Z,12.70
2017-10-12T19:13:15.263Z,12.80
2017-10-12T19:15:44.131Z,12.70
2017-10-12T19:18:12.699Z,12.60
2017-10-12T19:20:41.330Z,12.60
2017-10-12T19:23:10.061Z,12.60
2017-10-12T19:25:39.540Z,12.60
2017-10-12T19:30:37.109Z,12.50
2017-10-12T19:35:34.044Z,12.50
2017-10-12T19:38:02.422Z,12.50
2017-10-12T19:40:30.703Z,12.40
2017-10-12T19:42:59.265Z,12.40
2017-10-12T19:45:28.191Z,12.40
2017-10-12T19:47:57.031Z,12.40
2017-10-12T19:50:26.859Z,12.40
2017-10-12T19:52:56.665Z,12.40
2017-10-12T19:55:25.529Z,12.40
2017-10-12T19:57:54.132Z,12.40
2017-10-12T20:00:23.078Z,12.40
2017-10-12T20:02:52.694Z,12.30
2017-10-12T20:05:21.327Z,12.30
2017-10-12T20:07:50.856Z,12.30
2017-10-12T20:10:20.493Z,12.30
2017-10-12T20:12:50.151Z,12.30
2017-10-12T20:15:18.875Z,12.30
2017-10-12T20:17:48.039Z,12.40
2017-10-12T20:20:17.170Z,12.40
2017-10-12T20:22:46.035Z,12.50
2017-10-12T20:25:14.879Z,12.40
2017-10-12T20:27:44.644Z,12.40
2017-10-12T20:30:13.449Z,12.40
2017-10-12T20:32:43.060Z,12.40
2017-10-12T20:35:12.231Z,12.40
2017-10-12T20:37:41.046Z,12.30
2017-10-12T20:40:09.827Z,12.40
2017-10-12T20:42:38.471Z,12.40
2017-10-12T20:45:08.427Z,12.30
2017-10-12T20:47:37.041Z,12.30
2017-10-12T20:50:05.447Z,12.30
2017-10-12T20:52:34.207Z,12.30
2017-10-12T20:57:31.973Z,12.20
2017-10-12T21:00:00.707Z,12.10
2017-10-12T21:04:59.304Z,12.20
2017-10-12T21:07:28.578Z,12.10
2017-10-12T21:09:57.208Z,12.10
2017-10-12T21:12:27.171Z,12.10
2017-10-12T21:14:55.478Z,12.00
2017-10-12T21:17:24.270Z,12.00
2017-10-12T21:19:53.199Z,12.00
2017-10-12T21:22:21.908Z,11.90
2017-10-12T21:24:50.544Z,11.90
2017-10-12T21:27:19.254Z,11.90
2017-10-12T21:29:47.868Z,12.00
2017-10-12T21:32:17.065Z,11.90
2017-10-12T21:34:46.020Z,11.90
2017-10-12T21:37:14.327Z,12.00
2017-10-12T21:39:42.743Z,11.90
2017-10-12T21:42:11.878Z,11.90
2017-10-12T21:44:41.298Z,11.90
2017-10-12T21:47:10.391Z,11.90
2017-10-12T21:49:38.890Z,11.90
2017-10-12T21:52:07.775Z,11.90
2017-10-12T21:54:36.503Z,12.00
2017-10-12T21:57:06.613Z,11.90
2017-10-12T21:59:35.689Z,11.90
2017-10-12T22:02:04.779Z,11.90
2017-10-12T22:04:33.103Z,11.90
2017-10-12T22:07:02.847Z,11.90
2017-10-12T22:09:32.067Z,11.90
2017-10-12T22:12:00.754Z,11.90
2017-10-12T22:14:29.642Z,11.90
2017-10-12T22:16:58.322Z,11.90
2017-10-12T22:19:27.707Z,11.90
2017-10-12T22:21:56.291Z,12.00
2017-10-12T22:24:25.190Z,11.90
2017-10-12T22:26:53.892Z,11.90
2017-10-12T22:29:22.598Z,12.00
2017-10-12T22:31:51.246Z,12.00
2017-10-12T22:34:20.407Z,12.00
2017-10-12T22:36:50.159Z,12.10
2017-10-12T22:39:18.961Z,12.10
2017-10-12T22:41:48.057Z,11.90
2017-10-12T22:44:17.098Z,12.00
2017-10-12T22:46:46.044Z,12.00
2017-10-12T22:49:14.730Z,11.90
2017-10-12T22:51:43.602Z,11.90
2017-10-12T22:54:12.308Z,12.00
2017-10-12T22:56:41.199Z,11.90
2017-10-12T22:59:10.704Z,11.90
2017-10-12T23:01:40.212Z,11.80
2017-10-12T23:04:08.872Z,11.80
2017-10-12T23:06:37.706Z,11.70
2017-10-12T23:09:07.067Z,11.70
2017-10-12T23:11:36.183Z,11.70
2017-10-12T23:14:05.055Z,11.70
2017-10-12T23:16:34.254Z,11.70
2017-10-12T23:19:02.837Z,11.70
2017-10-12T23:21:32.158Z,11.60
2017-10-12T23:24:01.253Z,11.60
2017-10-12T23:26:30.119Z,11.60
2017-10-12T23:28:59.858Z,11.60
2017-10-12T23:31:29.279Z,11.50
2017-10-12T23:33:58.229Z,11.60
2017-10-12T23:36:26.703Z,11.60
2017-10-12T23:38:55.604Z,11.50
2017-10-12T23:41:24.996Z,11.50
2017-10-12T23:43:54.410Z,11.50
2017-10-12T23:46:23.422Z,11.50
2017-10-12T23:48:51.758Z,11.50
2017-10-12T23:51:20.471Z,11.50
2017-10-12T23:53:49.953Z,11.50
2017-10-12T23:56:18.955Z,11.40
2017-10-12T23:58:47.981Z,11.40
